sensor_id;sensor_type;location;lat;lon;timestamp;P1;durP1;ratioP1;P2;durP2;ratioP2
12816;SDS011;6473;51.552;6.716;2023-05-10T00:02:00;14.70;;;9.35;;
12816;SDS011;6473;51.552;6.716;2023-05-10T00:04:27;15.57;;;9.88;;
12816;SDS011;6473;51.552;6.716;2023-05-10T00:06:54;14.13;;;10.15;;
12816;SDS011;6473;51.552;6.716;2023-05-10T00:09:21;14.57;;;10.02;;
12816;SDS011;6473;51.552;6.716;2023-05-10T00:11:48;14.30;;;9.85;;
12816;SDS011;6473;51.552;6.716;2023-05-10T00:14:15;18.80;;;11.25;;
12816;SDS011;6473;51.552;6.716;2023-05-10T00:16:41;16.40;;;11.45;;
12816;SDS011;6473;51.552;6.716;2023-05-10T00:19:10;20.27;;;12.38;;
12816;SDS011;6473;51.552;6.716;2023-05-10T00:21:37;16.02;;;11.25;;
12816;SDS011;6473;51.552;6.716;2023-05-10T00:24:04;19.65;;;11.65;;
12816;SDS011;6473;51.552;6.716;2023-05-10T00:26:31;16.20;;;11.65;;
12816;SDS011;6473;51.552;6.716;2023-05-10T00:28:59;19.17;;;12.50;;
12816;SDS011;6473;51.552;6.716;2023-05-10T00:31:26;20.00;;;12.02;;
12816;SDS011;6473;51.552;6.716;2023-05-10T00:33:53;20.65;;;12.80;;
12816;SDS011;6473;51.552;6.716;2023-05-10T00:36:22;18.92;;;12.48;;
12816;SDS011;6473;51.552;6.716;2023-05-10T00:38:51;23.27;;;14.02;;
12816;SDS011;6473;51.552;6.716;2023-05-10T00:41:18;19.80;;;12.23;;
12816;SDS011;6473;51.552;6.716;2023-05-10T00:43:46;18.33;;;11.98;;
12816;SDS011;6473;51.552;6.716;2023-05-10T00:46:13;19.27;;;12.88;;
12816;SDS011;6473;51.552;6.716;2023-05-10T00:48:41;18.75;;;13.07;;
12816;SDS011;6473;51.552;6.716;2023-05-10T00:51:09;19.92;;;12.88;;
12816;SDS011;6473;51.552;6.716;2023-05-10T00:53:38;19.85;;;13.18;;
12816;SDS011;6473;51.552;6.716;2023-05-10T00:56:06;21.45;;;13.68;;
12816;SDS011;6473;51.552;6.716;2023-05-10T00:58:34;20.00;;;13.23;;
12816;SDS011;6473;51.552;6.716;2023-05-10T01:01:01;19.85;;;13.63;;
12816;SDS011;6473;51.552;6.716;2023-05-10T01:03:28;22.40;;;13.68;;
12816;SDS011;6473;51.552;6.716;2023-05-10T01:05:55;22.70;;;13.80;;
12816;SDS011;6473;51.552;6.716;2023-05-10T01:08:23;20.75;;;13.18;;
12816;SDS011;6473;51.552;6.716;2023-05-10T01:10:52;22.67;;;13.25;;
12816;SDS011;6473;51.552;6.716;2023-05-10T01:13:23;20.98;;;13.75;;
12816;SDS011;6473;51.552;6.716;2023-05-10T01:15:57;24.40;;;14.30;;
12816;SDS011;6473;51.552;6.716;2023-05-10T01:18:24;21.83;;;14.10;;
12816;SDS011;6473;51.552;6.716;2023-05-10T01:20:55;23.02;;;14.23;;
12816;SDS011;6473;51.552;6.716;2023-05-10T01:23:32;22.73;;;14.77;;
12816;SDS011;6473;51.552;6.716;2023-05-10T01:26:22;24.67;;;13.77;;
12816;SDS011;6473;51.552;6.716;2023-05-10T01:29:13;19.90;;;12.30;;
12816;SDS011;6473;51.552;6.716;2023-05-10T01:34:54;18.90;;;11.82;;
12816;SDS011;6473;51.552;6.716;2023-05-10T01:37:28;18.52;;;11.68;;
12816;SDS011;6473;51.552;6.716;2023-05-10T01:40:00;19.02;;;12.20;;
12816;SDS011;6473;51.552;6.716;2023-05-10T01:42:36;19.00;;;11.52;;
12816;SDS011;6473;51.552;6.716;2023-05-10T01:45:11;16.63;;;11.48;;
12816;SDS011;6473;51.552;6.716;2023-05-10T01:47:50;18.17;;;11.77;;
12816;SDS011;6473;51.552;6.716;2023-05-10T01:50:24;18.20;;;12.07;;
12816;SDS011;6473;51.552;6.716;2023-05-10T01:52:56;20.70;;;13.10;;
12816;SDS011;6473;51.552;6.716;2023-05-10T01:55:25;19.02;;;12.73;;
12816;SDS011;6473;51.552;6.716;2023-05-10T01:57:56;19.08;;;12.60;;
12816;SDS011;6473;51.552;6.716;2023-05-10T02:00:27;19.40;;;13.30;;
12816;SDS011;6473;51.552;6.716;2023-05-10T02:02:57;21.05;;;13.20;;
12816;SDS011;6473;51.552;6.716;2023-05-10T02:05:27;19.20;;;12.88;;
12816;SDS011;6473;51.552;6.716;2023-05-10T02:07:56;19.75;;;12.38;;
12816;SDS011;6473;51.552;6.716;2023-05-10T02:10:25;21.23;;;13.73;;
12816;SDS011;6473;51.552;6.716;2023-05-10T02:12:53;23.15;;;13.85;;
12816;SDS011;6473;51.552;6.716;2023-05-10T02:15:22;23.02;;;13.20;;
12816;SDS011;6473;51.552;6.716;2023-05-10T02:17:50;22.60;;;13.77;;
12816;SDS011;6473;51.552;6.716;2023-05-10T02:20:22;22.77;;;14.43;;
12816;SDS011;6473;51.552;6.716;2023-05-10T02:22:51;25.50;;;14.30;;
12816;SDS011;6473;51.552;6.716;2023-05-10T02:25:20;22.27;;;12.98;;
12816;SDS011;6473;51.552;6.716;2023-05-10T02:27:49;21.10;;;13.60;;
12816;SDS011;6473;51.552;6.716;2023-05-10T02:30:18;22.27;;;14.57;;
12816;SDS011;6473;51.552;6.716;2023-05-10T02:32:45;23.08;;;14.65;;
12816;SDS011;6473;51.552;6.716;2023-05-10T02:35:16;20.85;;;13.52;;
12816;SDS011;6473;51.552;6.716;2023-05-10T02:37:44;20.73;;;13.32;;
12816;SDS011;6473;51.552;6.716;2023-05-10T02:40:13;25.10;;;14.50;;
12816;SDS011;6473;51.552;6.716;2023-05-10T02:42:41;23.60;;;14.50;;
12816;SDS011;6473;51.552;6.716;2023-05-10T02:45:12;22.95;;;14.63;;
12816;SDS011;6473;51.552;6.716;2023-05-10T02:47:41;21.63;;;14.52;;
12816;SDS011;6473;51.552;6.716;2023-05-10T02:50:09;25.02;;;15.55;;
12816;SDS011;6473;51.552;6.716;2023-05-10T02:52:39;25.52;;;15.23;;
12816;SDS011;6473;51.552;6.716;2023-05-10T02:55:09;23.08;;;14.43;;
12816;SDS011;6473;51.552;6.716;2023-05-10T02:57:41;26.40;;;15.48;;
12816;SDS011;6473;51.552;6.716;2023-05-10T03:00:12;24.83;;;14.70;;
12816;SDS011;6473;51.552;6.716;2023-05-10T03:02:39;22.45;;;14.77;;
12816;SDS011;6473;51.552;6.716;2023-05-10T03:05:07;25.45;;;15.23;;
12816;SDS011;6473;51.552;6.716;2023-05-10T03:07:35;23.80;;;15.30;;
12816;SDS011;6473;51.552;6.716;2023-05-10T03:10:02;27.15;;;15.98;;
12816;SDS011;6473;51.552;6.716;2023-05-10T03:12:37;22.98;;;15.25;;
12816;SDS011;6473;51.552;6.716;2023-05-10T03:15:19;24.42;;;15.45;;
12816;SDS011;6473;51.552;6.716;2023-05-10T03:17:52;22.42;;;14.70;;
12816;SDS011;6473;51.552;6.716;2023-05-10T03:20:24;22.63;;;14.93;;
12816;SDS011;6473;51.552;6.716;2023-05-10T03:22:55;25.58;;;16.63;;
12816;SDS011;6473;51.552;6.716;2023-05-10T03:25:28;27.10;;;16.02;;
12816;SDS011;6473;51.552;6.716;2023-05-10T03:27:58;24.90;;;14.77;;
12816;SDS011;6473;51.552;6.716;2023-05-10T03:30:28;24.48;;;15.50;;
12816;SDS011;6473;51.552;6.716;2023-05-10T03:32:55;28.33;;;16.73;;
12816;SDS011;6473;51.552;6.716;2023-05-10T03:35:23;28.33;;;17.13;;
12816;SDS011;6473;51.552;6.716;2023-05-10T03:37:50;29.98;;;16.65;;
12816;SDS011;6473;51.552;6.716;2023-05-10T03:40:17;25.38;;;17.20;;
12816;SDS011;6473;51.552;6.716;2023-05-10T03:42:44;28.02;;;15.68;;
12816;SDS011;6473;51.552;6.716;2023-05-10T03:45:12;27.65;;;16.80;;
12816;SDS011;6473;51.552;6.716;2023-05-10T03:47:39;26.55;;;16.77;;
12816;SDS011;6473;51.552;6.716;2023-05-10T03:50:07;29.00;;;17.02;;
12816;SDS011;6473;51.552;6.716;2023-05-10T03:52:35;26.23;;;15.98;;
12816;SDS011;6473;51.552;6.716;2023-05-10T03:55:04;29.58;;;16.25;;
12816;SDS011;6473;51.552;6.716;2023-05-10T03:57:32;26.98;;;16.20;;
12816;SDS011;6473;51.552;6.716;2023-05-10T03:59:59;25.80;;;16.55;;
12816;SDS011;6473;51.552;6.716;2023-05-10T04:02:27;27.20;;;16.92;;
12816;SDS011;6473;51.552;6.716;2023-05-10T04:04:55;28.30;;;16.63;;
12816;SDS011;6473;51.552;6.716;2023-05-10T04:07:21;27.13;;;17.05;;
12816;SDS011;6473;51.552;6.716;2023-05-10T04:09:49;31.20;;;17.77;;
12816;SDS011;6473;51.552;6.716;2023-05-10T04:12:16;30.98;;;16.77;;
12816;SDS011;6473;51.552;6.716;2023-05-10T04:14:43;30.58;;;17.60;;
12816;SDS011;6473;51.552;6.716;2023-05-10T04:17:09;30.38;;;18.05;;
12816;SDS011;6473;51.552;6.716;2023-05-10T04:19:38;30.17;;;17.08;;
12816;SDS011;6473;51.552;6.716;2023-05-10T04:22:04;31.77;;;19.15;;
12816;SDS011;6473;51.552;6.716;2023-05-10T04:24:31;33.50;;;18.70;;
12816;SDS011;6473;51.552;6.716;2023-05-10T04:26:58;34.17;;;18.83;;
12816;SDS011;6473;51.552;6.716;2023-05-10T04:29:25;36.15;;;19.52;;
12816;SDS011;6473;51.552;6.716;2023-05-10T04:31:52;34.67;;;19.63;;
12816;SDS011;6473;51.552;6.716;2023-05-10T04:34:20;38.22;;;20.83;;
12816;SDS011;6473;51.552;6.716;2023-05-10T04:36:48;39.72;;;21.63;;
12816;SDS011;6473;51.552;6.716;2023-05-10T04:39:15;40.05;;;22.15;;
12816;SDS011;6473;51.552;6.716;2023-05-10T04:41:42;40.45;;;22.00;;
12816;SDS011;6473;51.552;6.716;2023-05-10T04:44:09;43.40;;;23.35;;
12816;SDS011;6473;51.552;6.716;2023-05-10T04:46:35;49.70;;;24.00;;
12816;SDS011;6473;51.552;6.716;2023-05-10T04:49:02;47.70;;;25.40;;
12816;SDS011;6473;51.552;6.716;2023-05-10T04:51:29;40.70;;;24.55;;
12816;SDS011;6473;51.552;6.716;2023-05-10T04:53:58;41.53;;;23.85;;
12816;SDS011;6473;51.552;6.716;2023-05-10T04:56:25;44.55;;;24.38;;
12816;SDS011;6473;51.552;6.716;2023-05-10T04:58:51;49.40;;;27.27;;
12816;SDS011;6473;51.552;6.716;2023-05-10T05:01:18;40.53;;;23.90;;
12816;SDS011;6473;51.552;6.716;2023-05-10T05:03:45;47.85;;;26.73;;
12816;SDS011;6473;51.552;6.716;2023-05-10T05:06:12;47.33;;;25.73;;
12816;SDS011;6473;51.552;6.716;2023-05-10T05:08:39;43.63;;;25.73;;
12816;SDS011;6473;51.552;6.716;2023-05-10T05:11:07;49.45;;;26.42;;
12816;SDS011;6473;51.552;6.716;2023-05-10T05:13:34;44.70;;;26.02;;
12816;SDS011;6473;51.552;6.716;2023-05-10T05:16:01;45.63;;;25.70;;
12816;SDS011;6473;51.552;6.716;2023-05-10T05:18:28;47.95;;;27.20;;
12816;SDS011;6473;51.552;6.716;2023-05-10T05:20:55;44.80;;;26.58;;
12816;SDS011;6473;51.552;6.716;2023-05-10T05:23:22;43.45;;;25.98;;
12816;SDS011;6473;51.552;6.716;2023-05-10T05:25:50;44.22;;;25.85;;
12816;SDS011;6473;51.552;6.716;2023-05-10T05:28:19;44.63;;;25.95;;
12816;SDS011;6473;51.552;6.716;2023-05-10T05:30:46;44.35;;;26.48;;
12816;SDS011;6473;51.552;6.716;2023-05-10T05:33:13;42.13;;;25.38;;
12816;SDS011;6473;51.552;6.716;2023-05-10T05:35:41;44.67;;;25.30;;
12816;SDS011;6473;51.552;6.716;2023-05-10T05:38:12;40.38;;;25.17;;
12816;SDS011;6473;51.552;6.716;2023-05-10T05:40:39;44.35;;;24.27;;
12816;SDS011;6473;51.552;6.716;2023-05-10T05:43:06;44.67;;;25.48;;
12816;SDS011;6473;51.552;6.716;2023-05-10T05:45:34;42.55;;;24.23;;
12816;SDS011;6473;51.552;6.716;2023-05-10T05:48:01;40.45;;;24.42;;
12816;SDS011;6473;51.552;6.716;2023-05-10T05:50:28;39.42;;;25.48;;
12816;SDS011;6473;51.552;6.716;2023-05-10T05:52:55;42.42;;;24.70;;
12816;SDS011;6473;51.552;6.716;2023-05-10T05:55:22;38.70;;;23.98;;
12816;SDS011;6473;51.552;6.716;2023-05-10T05:57:50;41.03;;;24.98;;
12816;SDS011;6473;51.552;6.716;2023-05-10T06:00:17;43.05;;;25.58;;
12816;SDS011;6473;51.552;6.716;2023-05-10T06:02:46;38.25;;;24.58;;
12816;SDS011;6473;51.552;6.716;2023-05-10T06:05:12;38.30;;;24.52;;
12816;SDS011;6473;51.552;6.716;2023-05-10T06:07:40;40.33;;;23.50;;
12816;SDS011;6473;51.552;6.716;2023-05-10T06:10:07;38.08;;;23.98;;
12816;SDS011;6473;51.552;6.716;2023-05-10T06:12:35;40.33;;;24.55;;
12816;SDS011;6473;51.552;6.716;2023-05-10T06:15:02;39.95;;;23.95;;
12816;SDS011;6473;51.552;6.716;2023-05-10T06:17:29;35.80;;;23.65;;
12816;SDS011;6473;51.552;6.716;2023-05-10T06:19:57;37.00;;;24.65;;
12816;SDS011;6473;51.552;6.716;2023-05-10T06:22:24;35.28;;;23.20;;
12816;SDS011;6473;51.552;6.716;2023-05-10T06:24:51;34.78;;;23.73;;
12816;SDS011;6473;51.552;6.716;2023-05-10T06:27:18;35.08;;;23.92;;
12816;SDS011;6473;51.552;6.716;2023-05-10T06:29:44;40.85;;;24.60;;
12816;SDS011;6473;51.552;6.716;2023-05-10T06:32:11;37.58;;;23.02;;
12816;SDS011;6473;51.552;6.716;2023-05-10T06:34:38;36.97;;;24.00;;
12816;SDS011;6473;51.552;6.716;2023-05-10T06:37:06;39.20;;;23.75;;
12816;SDS011;6473;51.552;6.716;2023-05-10T06:39:33;34.42;;;23.85;;
12816;SDS011;6473;51.552;6.716;2023-05-10T06:42:00;34.13;;;24.20;;
12816;SDS011;6473;51.552;6.716;2023-05-10T06:44:31;41.20;;;24.65;;
12816;SDS011;6473;51.552;6.716;2023-05-10T06:46:58;41.40;;;24.25;;
12816;SDS011;6473;51.552;6.716;2023-05-10T06:49:25;38.00;;;23.67;;
12816;SDS011;6473;51.552;6.716;2023-05-10T06:51:52;41.20;;;25.30;;
12816;SDS011;6473;51.552;6.716;2023-05-10T06:54:20;38.47;;;23.98;;
12816;SDS011;6473;51.552;6.716;2023-05-10T06:56:48;39.10;;;24.30;;
12816;SDS011;6473;51.552;6.716;2023-05-10T06:59:15;38.47;;;24.88;;
12816;SDS011;6473;51.552;6.716;2023-05-10T07:01:42;39.65;;;24.27;;
12816;SDS011;6473;51.552;6.716;2023-05-10T07:04:08;36.03;;;25.33;;
12816;SDS011;6473;51.552;6.716;2023-05-10T07:06:35;39.28;;;24.73;;
12816;SDS011;6473;51.552;6.716;2023-05-10T07:09:02;39.40;;;24.60;;
12816;SDS011;6473;51.552;6.716;2023-05-10T07:11:30;40.55;;;24.60;;
12816;SDS011;6473;51.552;6.716;2023-05-10T07:13:57;39.95;;;24.02;;
12816;SDS011;6473;51.552;6.716;2023-05-10T07:16:24;38.33;;;23.88;;
12816;SDS011;6473;51.552;6.716;2023-05-10T07:18:51;40.67;;;25.45;;
12816;SDS011;6473;51.552;6.716;2023-05-10T07:21:18;44.53;;;24.92;;
12816;SDS011;6473;51.552;6.716;2023-05-10T07:23:45;42.30;;;24.02;;
12816;SDS011;6473;51.552;6.716;2023-05-10T07:26:12;37.08;;;24.23;;
12816;SDS011;6473;51.552;6.716;2023-05-10T07:28:41;38.72;;;25.08;;
12816;SDS011;6473;51.552;6.716;2023-05-10T07:31:08;40.28;;;24.45;;
12816;SDS011;6473;51.552;6.716;2023-05-10T07:33:35;38.47;;;23.45;;
12816;SDS011;6473;51.552;6.716;2023-05-10T07:36:01;44.33;;;23.58;;
12816;SDS011;6473;51.552;6.716;2023-05-10T07:38:28;37.40;;;22.65;;
12816;SDS011;6473;51.552;6.716;2023-05-10T07:40:55;37.90;;;22.80;;
12816;SDS011;6473;51.552;6.716;2023-05-10T07:43:22;32.75;;;19.73;;
12816;SDS011;6473;51.552;6.716;2023-05-10T07:45:50;32.33;;;19.33;;
12816;SDS011;6473;51.552;6.716;2023-05-10T07:48:17;28.25;;;18.90;;
12816;SDS011;6473;51.552;6.716;2023-05-10T07:50:44;28.55;;;18.23;;
12816;SDS011;6473;51.552;6.716;2023-05-10T07:53:11;28.75;;;18.67;;
12816;SDS011;6473;51.552;6.716;2023-05-10T07:55:37;26.40;;;18.58;;
12816;SDS011;6473;51.552;6.716;2023-05-10T07:58:04;31.17;;;19.33;;
12816;SDS011;6473;51.552;6.716;2023-05-10T08:00:31;31.55;;;19.75;;
12816;SDS011;6473;51.552;6.716;2023-05-10T08:03:00;33.55;;;19.42;;
12816;SDS011;6473;51.552;6.716;2023-05-10T08:05:26;30.23;;;18.67;;
12816;SDS011;6473;51.552;6.716;2023-05-10T08:07:53;35.50;;;19.20;;
12816;SDS011;6473;51.552;6.716;2023-05-10T08:10:22;28.55;;;18.27;;
12816;SDS011;6473;51.552;6.716;2023-05-10T08:12:50;30.60;;;19.52;;
12816;SDS011;6473;51.552;6.716;2023-05-10T08:15:17;32.28;;;19.45;;
12816;SDS011;6473;51.552;6.716;2023-05-10T08:17:44;32.95;;;20.25;;
12816;SDS011;6473;51.552;6.716;2023-05-10T08:20:12;31.95;;;19.52;;
12816;SDS011;6473;51.552;6.716;2023-05-10T08:22:42;32.75;;;19.05;;
12816;SDS011;6473;51.552;6.716;2023-05-10T08:25:08;30.17;;;18.20;;
12816;SDS011;6473;51.552;6.716;2023-05-10T08:27:35;28.02;;;16.27;;
12816;SDS011;6473;51.552;6.716;2023-05-10T08:30:02;22.17;;;15.10;;
12816;SDS011;6473;51.552;6.716;2023-05-10T08:32:30;22.30;;;15.45;;
12816;SDS011;6473;51.552;6.716;2023-05-10T08:34:56;22.25;;;15.48;;
12816;SDS011;6473;51.552;6.716;2023-05-10T08:37:25;20.85;;;15.93;;
12816;SDS011;6473;51.552;6.716;2023-05-10T08:39:52;24.55;;;16.83;;
12816;SDS011;6473;51.552;6.716;2023-05-10T08:42:19;22.23;;;14.85;;
12816;SDS011;6473;51.552;6.716;2023-05-10T08:44:48;22.10;;;15.80;;
12816;SDS011;6473;51.552;6.716;2023-05-10T08:47:16;19.58;;;15.40;;
12816;SDS011;6473;51.552;6.716;2023-05-10T08:49:44;20.70;;;14.65;;
12816;SDS011;6473;51.552;6.716;2023-05-10T08:52:14;18.88;;;13.88;;
12816;SDS011;6473;51.552;6.716;2023-05-10T08:54:43;20.55;;;14.88;;
12816;SDS011;6473;51.552;6.716;2023-05-10T08:57:10;19.23;;;15.07;;
12816;SDS011;6473;51.552;6.716;2023-05-10T08:59:37;18.55;;;14.35;;
12816;SDS011;6473;51.552;6.716;2023-05-10T09:02:05;16.05;;;13.52;;
12816;SDS011;6473;51.552;6.716;2023-05-10T09:04:35;17.45;;;13.15;;
12816;SDS011;6473;51.552;6.716;2023-05-10T09:07:02;19.10;;;13.77;;
12816;SDS011;6473;51.552;6.716;2023-05-10T09:09:29;16.92;;;12.82;;
12816;SDS011;6473;51.552;6.716;2023-05-10T09:11:58;19.20;;;14.10;;
12816;SDS011;6473;51.552;6.716;2023-05-10T09:14:25;19.23;;;13.80;;
12816;SDS011;6473;51.552;6.716;2023-05-10T09:16:53;15.65;;;12.18;;
12816;SDS011;6473;51.552;6.716;2023-05-10T09:19:21;19.70;;;13.18;;
12816;SDS011;6473;51.552;6.716;2023-05-10T09:21:47;15.85;;;12.75;;
12816;SDS011;6473;51.552;6.716;2023-05-10T09:24:15;17.98;;;12.52;;
12816;SDS011;6473;51.552;6.716;2023-05-10T09:26:45;17.02;;;13.18;;
12816;SDS011;6473;51.552;6.716;2023-05-10T09:29:15;15.52;;;12.52;;
12816;SDS011;6473;51.552;6.716;2023-05-10T09:31:43;23.50;;;14.63;;
12816;SDS011;6473;51.552;6.716;2023-05-10T09:34:15;20.85;;;13.10;;
12816;SDS011;6473;51.552;6.716;2023-05-10T09:36:52;16.55;;;12.43;;
12816;SDS011;6473;51.552;6.716;2023-05-10T09:39:21;20.75;;;13.25;;
12816;SDS011;6473;51.552;6.716;2023-05-10T09:41:57;18.77;;;12.30;;
12816;SDS011;6473;51.552;6.716;2023-05-10T09:44:26;17.90;;;13.27;;
12816;SDS011;6473;51.552;6.716;2023-05-10T09:46:53;18.02;;;13.68;;
12816;SDS011;6473;51.552;6.716;2023-05-10T09:49:20;22.45;;;14.48;;
12816;SDS011;6473;51.552;6.716;2023-05-10T09:51:47;18.27;;;14.15;;
12816;SDS011;6473;51.552;6.716;2023-05-10T09:54:23;22.85;;;15.00;;
12816;SDS011;6473;51.552;6.716;2023-05-10T09:56:50;20.20;;;14.88;;
12816;SDS011;6473;51.552;6.716;2023-05-10T09:59:17;23.92;;;14.88;;
12816;SDS011;6473;51.552;6.716;2023-05-10T10:01:50;18.00;;;13.63;;
12816;SDS011;6473;51.552;6.716;2023-05-10T10:04:19;20.98;;;14.43;;
12816;SDS011;6473;51.552;6.716;2023-05-10T10:06:47;16.67;;;12.95;;
12816;SDS011;6473;51.552;6.716;2023-05-10T10:09:25;16.48;;;12.38;;
12816;SDS011;6473;51.552;6.716;2023-05-10T10:11:51;15.65;;;12.32;;
12816;SDS011;6473;51.552;6.716;2023-05-10T10:14:20;17.17;;;13.15;;
12816;SDS011;6473;51.552;6.716;2023-05-10T10:16:50;22.70;;;13.32;;
12816;SDS011;6473;51.552;6.716;2023-05-10T10:19:18;16.10;;;13.00;;
12816;SDS011;6473;51.552;6.716;2023-05-10T10:21:45;16.90;;;12.23;;
12816;SDS011;6473;51.552;6.716;2023-05-10T10:24:12;16.23;;;12.50;;
12816;SDS011;6473;51.552;6.716;2023-05-10T10:26:39;16.80;;;12.80;;
12816;SDS011;6473;51.552;6.716;2023-05-10T10:29:10;17.92;;;12.43;;
12816;SDS011;6473;51.552;6.716;2023-05-10T10:31:45;18.00;;;12.82;;
12816;SDS011;6473;51.552;6.716;2023-05-10T10:34:21;16.30;;;12.13;;
12816;SDS011;6473;51.552;6.716;2023-05-10T10:36:52;16.38;;;12.55;;
12816;SDS011;6473;51.552;6.716;2023-05-10T10:39:21;17.02;;;13.32;;
12816;SDS011;6473;51.552;6.716;2023-05-10T10:41:50;16.45;;;13.93;;
12816;SDS011;6473;51.552;6.716;2023-05-10T10:47:25;16.00;;;13.57;;
12816;SDS011;6473;51.552;6.716;2023-05-10T10:50:06;16.92;;;12.85;;
12816;SDS011;6473;51.552;6.716;2023-05-10T10:52:35;18.70;;;13.23;;
12816;SDS011;6473;51.552;6.716;2023-05-10T10:55:03;16.63;;;12.88;;
12816;SDS011;6473;51.552;6.716;2023-05-10T10:57:35;18.67;;;13.80;;
12816;SDS011;6473;51.552;6.716;2023-05-10T11:00:20;15.75;;;13.57;;
12816;SDS011;6473;51.552;6.716;2023-05-10T11:02:49;19.25;;;14.80;;
12816;SDS011;6473;51.552;6.716;2023-05-10T11:05:27;19.08;;;15.25;;
12816;SDS011;6473;51.552;6.716;2023-05-10T11:08:07;19.88;;;14.38;;
12816;SDS011;6473;51.552;6.716;2023-05-10T11:10:50;19.20;;;14.73;;
12816;SDS011;6473;51.552;6.716;2023-05-10T11:13:26;18.08;;;15.82;;
12816;SDS011;6473;51.552;6.716;2023-05-10T11:15:56;20.40;;;15.18;;
12816;SDS011;6473;51.552;6.716;2023-05-10T11:18:25;19.42;;;15.07;;
12816;SDS011;6473;51.552;6.716;2023-05-10T11:20:57;18.42;;;15.23;;
12816;SDS011;6473;51.552;6.716;2023-05-10T11:23:29;18.45;;;14.90;;
12816;SDS011;6473;51.552;6.716;2023-05-10T11:25:57;17.60;;;14.05;;
12816;SDS011;6473;51.552;6.716;2023-05-10T11:28:24;18.58;;;14.23;;
12816;SDS011;6473;51.552;6.716;2023-05-10T11:30:53;16.05;;;12.93;;
12816;SDS011;6473;51.552;6.716;2023-05-10T11:33:20;13.80;;;11.75;;
12816;SDS011;6473;51.552;6.716;2023-05-10T11:35:47;13.75;;;11.50;;
12816;SDS011;6473;51.552;6.716;2023-05-10T11:38:15;16.17;;;12.07;;
12816;SDS011;6473;51.552;6.716;2023-05-10T11:40:42;18.63;;;12.07;;
12816;SDS011;6473;51.552;6.716;2023-05-10T11:43:09;17.83;;;11.85;;
12816;SDS011;6473;51.552;6.716;2023-05-10T11:45:37;21.88;;;12.80;;
12816;SDS011;6473;51.552;6.716;2023-05-10T11:48:05;16.17;;;12.23;;
12816;SDS011;6473;51.552;6.716;2023-05-10T11:50:33;16.73;;;11.57;;
12816;SDS011;6473;51.552;6.716;2023-05-10T11:53:00;17.90;;;10.73;;
12816;SDS011;6473;51.552;6.716;2023-05-10T11:55:28;13.85;;;10.05;;
12816;SDS011;6473;51.552;6.716;2023-05-10T11:58:01;15.63;;;10.35;;
12816;SDS011;6473;51.552;6.716;2023-05-10T12:00:29;12.60;;;10.60;;
12816;SDS011;6473;51.552;6.716;2023-05-10T12:02:59;12.25;;;9.73;;
12816;SDS011;6473;51.552;6.716;2023-05-10T12:05:27;11.20;;;9.48;;
12816;SDS011;6473;51.552;6.716;2023-05-10T12:10:41;9.43;;;8.13;;
12816;SDS011;6473;51.552;6.716;2023-05-10T12:13:10;14.05;;;9.48;;
12816;SDS011;6473;51.552;6.716;2023-05-10T12:15:39;9.30;;;7.78;;
12816;SDS011;6473;51.552;6.716;2023-05-10T12:18:05;11.07;;;8.40;;
12816;SDS011;6473;51.552;6.716;2023-05-10T12:20:35;8.85;;;7.43;;
12816;SDS011;6473;51.552;6.716;2023-05-10T12:23:02;9.40;;;8.15;;
12816;SDS011;6473;51.552;6.716;2023-05-10T12:25:31;9.43;;;8.20;;
12816;SDS011;6473;51.552;6.716;2023-05-10T12:28:03;9.25;;;7.97;;
12816;SDS011;6473;51.552;6.716;2023-05-10T12:30:32;8.63;;;7.72;;
12816;SDS011;6473;51.552;6.716;2023-05-10T12:33:00;8.27;;;6.93;;
12816;SDS011;6473;51.552;6.716;2023-05-10T12:35:32;8.85;;;7.93;;
12816;SDS011;6473;51.552;6.716;2023-05-10T12:37:59;10.02;;;7.07;;
12816;SDS011;6473;51.552;6.716;2023-05-10T12:40:26;8.27;;;6.70;;
12816;SDS011;6473;51.552;6.716;2023-05-10T12:42:53;8.88;;;6.28;;
12816;SDS011;6473;51.552;6.716;2023-05-10T12:45:21;6.93;;;6.03;;
12816;SDS011;6473;51.552;6.716;2023-05-10T12:47:48;7.78;;;6.40;;
12816;SDS011;6473;51.552;6.716;2023-05-10T12:50:15;6.78;;;6.13;;
12816;SDS011;6473;51.552;6.716;2023-05-10T12:52:41;6.40;;;5.75;;
12816;SDS011;6473;51.552;6.716;2023-05-10T12:55:08;6.50;;;5.90;;
12816;SDS011;6473;51.552;6.716;2023-05-10T12:57:35;6.22;;;5.60;;
12816;SDS011;6473;51.552;6.716;2023-05-10T13:00:02;6.35;;;5.85;;
12816;SDS011;6473;51.552;6.716;2023-05-10T13:02:32;5.95;;;5.22;;
12816;SDS011;6473;51.552;6.716;2023-05-10T13:04:58;6.68;;;5.07;;
12816;SDS011;6473;51.552;6.716;2023-05-10T13:07:26;6.95;;;6.22;;
12816;SDS011;6473;51.552;6.716;2023-05-10T13:09:52;7.00;;;4.80;;
12816;SDS011;6473;51.552;6.716;2023-05-10T13:12:19;5.88;;;5.30;;
12816;SDS011;6473;51.552;6.716;2023-05-10T13:14:46;5.97;;;4.85;;
12816;SDS011;6473;51.552;6.716;2023-05-10T13:17:13;5.53;;;5.03;;
12816;SDS011;6473;51.552;6.716;2023-05-10T13:19:41;6.38;;;5.70;;
12816;SDS011;6473;51.552;6.716;2023-05-10T13:22:08;6.38;;;5.30;;
12816;SDS011;6473;51.552;6.716;2023-05-10T13:24:35;6.20;;;5.68;;
12816;SDS011;6473;51.552;6.716;2023-05-10T13:27:01;6.43;;;5.82;;
12816;SDS011;6473;51.552;6.716;2023-05-10T13:29:28;7.03;;;6.38;;
12816;SDS011;6473;51.552;6.716;2023-05-10T13:31:55;6.70;;;6.10;;
12816;SDS011;6473;51.552;6.716;2023-05-10T13:34:22;6.40;;;5.53;;
12816;SDS011;6473;51.552;6.716;2023-05-10T13:36:50;5.97;;;5.38;;
12816;SDS011;6473;51.552;6.716;2023-05-10T13:39:18;6.82;;;5.07;;
12816;SDS011;6473;51.552;6.716;2023-05-10T13:41:45;6.35;;;5.75;;
12816;SDS011;6473;51.552;6.716;2023-05-10T13:44:11;5.43;;;4.75;;
12816;SDS011;6473;51.552;6.716;2023-05-10T13:46:39;6.50;;;5.35;;
12816;SDS011;6473;51.552;6.716;2023-05-10T13:49:08;5.53;;;4.93;;
12816;SDS011;6473;51.552;6.716;2023-05-10T13:51:35;5.60;;;5.10;;
12816;SDS011;6473;51.552;6.716;2023-05-10T13:54:03;5.32;;;4.63;;
12816;SDS011;6473;51.552;6.716;2023-05-10T13:56:31;4.55;;;4.15;;
12816;SDS011;6473;51.552;6.716;2023-05-10T13:58:58;5.15;;;4.65;;
12816;SDS011;6473;51.552;6.716;2023-05-10T14:01:25;5.43;;;4.65;;
12816;SDS011;6473;51.552;6.716;2023-05-10T14:03:52;5.00;;;4.55;;
12816;SDS011;6473;51.552;6.716;2023-05-10T14:06:19;4.45;;;4.10;;
12816;SDS011;6473;51.552;6.716;2023-05-10T14:08:45;4.75;;;4.32;;
12816;SDS011;6473;51.552;6.716;2023-05-10T14:11:14;4.22;;;3.83;;
12816;SDS011;6473;51.552;6.716;2023-05-10T14:13:41;5.20;;;4.80;;
12816;SDS011;6473;51.552;6.716;2023-05-10T14:16:08;4.78;;;3.72;;
12816;SDS011;6473;51.552;6.716;2023-05-10T14:18:35;4.65;;;4.25;;
12816;SDS011;6473;51.552;6.716;2023-05-10T14:21:01;5.93;;;4.07;;
12816;SDS011;6473;51.552;6.716;2023-05-10T14:23:29;4.18;;;3.75;;
12816;SDS011;6473;51.552;6.716;2023-05-10T14:25:56;4.47;;;4.18;;
12816;SDS011;6473;51.552;6.716;2023-05-10T14:28:24;4.97;;;4.47;;
12816;SDS011;6473;51.552;6.716;2023-05-10T14:30:51;6.30;;;5.80;;
12816;SDS011;6473;51.552;6.716;2023-05-10T14:33:18;6.38;;;5.88;;
12816;SDS011;6473;51.552;6.716;2023-05-10T14:35:45;7.53;;;6.82;;
12816;SDS011;6473;51.552;6.716;2023-05-10T14:38:13;6.60;;;6.00;;
12816;SDS011;6473;51.552;6.716;2023-05-10T14:40:40;6.90;;;6.30;;
12816;SDS011;6473;51.552;6.716;2023-05-10T14:43:06;6.82;;;6.22;;
12816;SDS011;6473;51.552;6.716;2023-05-10T14:45:35;7.60;;;6.80;;
12816;SDS011;6473;51.552;6.716;2023-05-10T14:48:01;12.25;;;7.85;;
12816;SDS011;6473;51.552;6.716;2023-05-10T14:50:29;7.78;;;7.07;;
12816;SDS011;6473;51.552;6.716;2023-05-10T14:52:56;7.30;;;6.60;;
12816;SDS011;6473;51.552;6.716;2023-05-10T14:55:23;7.75;;;7.05;;
12816;SDS011;6473;51.552;6.716;2023-05-10T14:57:50;10.15;;;9.02;;